Time;durP1;ratioP1;P1;durP2;ratioP2;P2;SDS_P1;SDS_P2;PMS_P1;PMS_P2;Temp;Humidity;BMP_temperature;BMP_pressure;BME280_temperature;BME280_humidity;BME280_pressure;Samples;Min_cycle;Max_cycle;Signal;HPM_P1;HPM_P2
2021/12/02 00:00:29;;;;;;;4.97;1.30;;;;;;;3.94;72.16;98870.66;4950700;28;20276;-74
2021/12/02 00:02:55;;;;;;;5.87;1.30;;;;;;;3.93;70.86;98889.22;4950549;28;20706;-74
2021/12/02 00:05:22;;;;;;;5.43;1.00;;;;;;;3.93;72.04;98887.53;4959799;28;20211;-74
2021/12/02 00:07:48;;;;;;;4.70;1.20;;;;;;;3.92;71.94;98892.56;4955930;28;20212;-74
2021/12/02 00:10:13;;;;;;;11.03;1.77;;;;;;;3.92;70.62;98905.22;4950736;29;20718;-74
2021/12/02 00:12:38;;;;;;;5.40;1.03;;;;;;;3.90;71.02;98912.78;4951023;28;20217;-73
2021/12/02 00:15:07;;;;;;;11.33;1.57;;;;;;;3.89;71.07;98915.31;4951385;28;20242;-74
2021/12/02 00:17:38;;;;;;;5.13;1.10;;;;;;;3.90;70.85;98920.41;4950483;29;20240;-74
2021/12/02 00:23:25;;;;;;;6.10;1.40;;;;;;;3.87;71.73;98935.53;4951015;28;20221;-74
2021/12/02 00:25:52;;;;;;;7.50;1.17;;;;;;;3.86;71.18;98941.41;4950909;29;20200;-74
2021/12/02 00:28:17;;;;;;;8.87;1.30;;;;;;;3.87;71.17;98942.28;4950775;28;20219;-74
2021/12/02 00:30:43;;;;;;;7.93;1.80;;;;;;;3.84;72.16;98943.09;4950708;29;20219;-74
2021/12/02 00:33:11;;;;;;;4.27;1.53;;;;;;;3.82;72.20;98952.31;4965550;28;20213;-74
2021/12/02 00:35:36;;;;;;;8.53;1.60;;;;;;;3.84;71.62;98950.69;4950778;28;20260;-74
2021/12/02 00:38:02;;;;;;;4.00;1.70;;;;;;;3.85;71.99;98957.44;4950875;28;20186;-74
2021/12/02 00:40:28;;;;;;;4.73;1.37;;;;;;;3.84;72.56;98975.13;4950904;28;20660;-74
2021/12/02 00:42:54;;;;;;;4.93;1.17;;;;;;;3.83;72.50;98975.97;4950917;28;20308;-73
2021/12/02 00:45:19;;;;;;;5.33;1.10;;;;;;;3.83;71.66;98978.50;4950745;28;20256;-73
2021/12/02 00:47:46;;;;;;;4.97;1.13;;;;;;;3.83;71.95;98974.31;4951260;28;20248;-73
2021/12/02 00:50:11;;;;;;;5.77;1.17;;;;;;;3.83;71.78;98993.69;4954438;29;20196;-73
2021/12/02 00:52:37;;;;;;;7.63;1.30;;;;;;;3.82;71.83;98999.56;4953486;28;20217;-73
2021/12/02 00:55:03;;;;;;;6.77;1.30;;;;;;;3.79;72.86;98982.66;4954396;28;20221;-73
2021/12/02 00:57:29;;;;;;;4.50;0.90;;;;;;;3.82;71.95;99002.94;4954221;29;20332;-74
2021/12/02 00:59:56;;;;;;;6.00;1.73;;;;;;;3.79;72.83;99007.97;4954276;28;20321;-74
2021/12/02 01:02:23;;;;;;;6.30;1.30;;;;;;;3.78;72.97;99011.31;4953710;28;20199;-74
2021/12/02 01:04:49;;;;;;;10.43;2.10;;;;;;;3.80;73.44;99024.00;4954288;28;20202;-74
2021/12/02 01:07:15;;;;;;;7.60;1.67;;;;;;;3.75;74.67;99026.47;4953874;28;20215;-74
2021/12/02 01:09:41;;;;;;;7.33;1.40;;;;;;;3.76;72.93;99028.16;4968517;28;20201;-74
2021/12/02 01:12:06;;;;;;;6.83;1.60;;;;;;;3.73;73.18;99030.63;4953908;28;20224;-74
2021/12/02 01:14:32;;;;;;;5.70;1.30;;;;;;;3.75;72.97;99051.75;4953732;28;20185;-74
2021/12/02 01:16:57;;;;;;;7.77;2.40;;;;;;;3.73;72.24;99053.41;4953953;29;20189;-74
2021/12/02 01:19:23;;;;;;;3.47;0.97;;;;;;;3.74;72.46;99057.66;4968433;28;20231;-74
2021/12/02 01:21:50;;;;;;;6.17;1.20;;;;;;;3.74;71.81;99069.44;4953389;28;20211;-74
2021/12/02 01:24:19;;;;;;;9.20;1.27;;;;;;;3.74;71.88;99082.09;4953913;28;20189;-74
2021/12/02 01:26:51;;;;;;;6.03;1.10;;;;;;;3.71;72.36;99079.50;4968589;28;20201;-74
2021/12/02 01:29:19;;;;;;;5.10;1.30;;;;;;;3.71;71.92;99082.03;4955006;28;20185;-74
2021/12/02 01:31:49;;;;;;;10.23;1.40;;;;;;;3.71;71.66;99085.44;4953568;28;20275;-74
2021/12/02 01:34:16;;;;;;;3.67;0.80;;;;;;;3.68;70.97;99080.31;4953841;28;20196;-74
2021/12/02 01:36:42;;;;;;;7.40;1.60;;;;;;;3.66;71.71;99087.03;4953734;29;20208;-74
2021/12/02 01:39:08;;;;;;;7.00;1.53;;;;;;;3.66;72.17;99088.69;4953614;28;20193;-74
2021/12/02 01:41:37;;;;;;;5.90;1.47;;;;;;;3.64;71.34;99096.25;4953398;28;20209;-74
2021/12/02 01:44:09;;;;;;;4.37;1.10;;;;;;;3.62;72.14;99107.16;4953608;29;20196;-74
2021/12/02 01:46:36;;;;;;;8.43;1.43;;;;;;;3.57;72.54;99103.72;4953395;28;20639;-74
2021/12/02 01:49:06;;;;;;;3.40;1.10;;;;;;;3.58;71.78;99113.03;4953224;28;20197;-74
2021/12/02 01:51:38;;;;;;;7.23;1.50;;;;;;;3.59;71.79;99102.91;4952863;28;20246;-73
2021/12/02 01:54:10;;;;;;;8.13;1.40;;;;;;;3.58;72.52;99113.03;4953489;29;20177;-74
2021/12/02 01:56:48;;;;;;;7.30;1.27;;;;;;;3.56;72.62;99124.78;4953146;29;20197;-73
2021/12/02 01:59:17;;;;;;;5.33;1.20;;;;;;;3.51;71.96;99127.25;4952329;28;20592;-73
2021/12/02 02:01:45;;;;;;;4.03;0.97;;;;;;;3.55;72.02;99141.63;4952408;28;20224;-74
2021/12/02 02:04:11;;;;;;;6.03;1.20;;;;;;;3.51;72.45;99139.88;4967898;28;20225;-73
2021/12/02 02:06:40;;;;;;;5.80;1.10;;;;;;;3.48;72.55;99155.00;4952697;28;20595;-73
2021/12/02 02:09:07;;;;;;;7.10;1.00;;;;;;;3.49;72.02;99155.84;4967262;28;20259;-73
2021/12/02 02:11:33;;;;;;;5.90;1.50;;;;;;;3.45;73.01;99152.38;4952627;28;20209;-73
2021/12/02 02:14:00;;;;;;;7.27;1.37;;;;;;;3.44;75.48;99148.16;4953194;29;20677;-74
2021/12/02 02:16:25;;;;;;;7.50;1.50;;;;;;;3.41;75.35;99170.03;4952282;29;20193;-74
2021/12/02 02:18:51;;;;;;;9.83;1.47;;;;;;;3.39;76.02;99176.72;4952560;29;20193;-74
2021/12/02 02:21:19;;;;;;;6.17;1.27;;;;;;;3.34;76.98;99165.66;4952499;28;20291;-74
2021/12/02 02:23:50;;;;;;;6.13;1.43;;;;;;;3.29;77.91;99178.22;4951258;29;20193;-74
2021/12/02 02:26:23;;;;;;;6.87;1.50;;;;;;;3.27;78.92;99184.06;4951276;29;20184;-73
2021/12/02 02:28:49;;;;;;;6.07;1.10;;;;;;;3.19;79.48;99183.91;4952636;29;20643;-73
2021/12/02 02:31:14;;;;;;;8.67;1.63;;;;;;;3.17;79.69;99188.06;4952143;28;20252;-74
2021/12/02 02:33:40;;;;;;;7.50;1.40;;;;;;;3.14;79.63;99202.31;4952149;28;20228;-74
2021/12/02 02:36:07;;;;;;;5.10;1.57;;;;;;;3.10;80.19;99210.66;4952240;29;20852;-74
2021/12/02 02:38:35;;;;;;;6.53;1.10;;;;;;;3.06;80.08;99203.81;4952270;29;20204;-74
2021/12/02 02:41:03;;;;;;;5.53;1.13;;;;;;;3.01;80.93;99207.91;4952183;28;20196;-73
2021/12/02 02:43:31;;;;;;;7.60;1.60;;;;;;;3.01;81.36;99212.97;4966754;28;20208;-73
2021/12/02 02:45:56;;;;;;;6.13;1.10;;;;;;;3.01;79.82;99213.84;4951084;29;20201;-73
2021/12/02 02:48:22;;;;;;;4.33;1.00;;;;;;;3.03;80.59;99209.66;4951997;29;20239;-74
2021/12/02 02:50:47;;;;;;;5.90;1.10;;;;;;;3.06;78.94;99218.97;4952496;29;20232;-73
2021/12/02 02:53:18;;;;;;;5.37;1.30;;;;;;;3.03;78.54;99221.47;4952037;28;20216;-74
2021/12/02 02:55:52;;;;;;;5.70;1.00;;;;;;;3.03;77.91;99211.34;4952284;29;20224;-74
2021/12/02 02:58:28;;;;;;;3.17;0.83;;;;;;;3.01;77.85;99223.06;4952132;28;20276;-73
2021/12/02 03:01:11;;;;;;;5.83;1.23;;;;;;;2.98;78.62;99245.75;4951122;28;20184;-73
2021/12/02 03:03:48;;;;;;;3.73;1.10;;;;;;;2.93;78.41;99244.78;4965204;28;20192;-74
2021/12/02 03:06:37;;;;;;;3.03;0.73;;;;;;;2.92;76.90;99250.66;4951773;28;20200;-74
2021/12/02 03:09:21;;;;;;;4.80;0.90;;;;;;;2.90;76.01;99250.63;4966528;28;20256;-73
2021/12/02 03:11:53;;;;;;;4.67;1.00;;;;;;;2.95;74.22;99253.28;4950869;28;20234;-74
2021/12/02 03:14:26;;;;;;;3.53;1.10;;;;;;;2.94;74.12;99252.41;4952119;29;20185;-73
2021/12/02 03:16:52;;;;;;;2.97;0.80;;;;;;;2.95;73.54;99270.97;4951578;29;20189;-73
2021/12/02 03:19:28;;;;;;;1.40;0.60;;;;;;;2.90;73.97;99259.91;4951226;29;20205;-74
2021/12/02 03:21:56;;;;;;;3.17;0.97;;;;;;;2.91;74.62;99267.53;4951708;28;20553;-73
2021/12/02 03:24:23;;;;;;;4.27;1.00;;;;;;;2.93;73.25;99270.06;4951857;28;20188;-73
2021/12/02 03:26:48;;;;;;;2.93;0.90;;;;;;;2.91;73.56;99270.03;4951734;28;20203;-74
2021/12/02 03:29:14;;;;;;;4.07;0.90;;;;;;;2.86;74.17;99279.19;4951134;28;20679;-73
2021/12/02 03:31:39;;;;;;;5.53;0.87;;;;;;;2.85;74.01;99286.72;4951123;28;20288;-74
2021/12/02 03:34:07;;;;;;;4.67;0.70;;;;;;;2.79;74.81;99289.97;4951641;28;20221;-74
2021/12/02 03:36:33;;;;;;;3.90;0.80;;;;;;;2.76;74.96;99284.81;4951475;28;20221;-73
2021/12/02 03:38:58;;;;;;;4.13;0.80;;;;;;;2.73;75.20;99294.88;4951536;28;20225;-74
2021/12/02 03:41:24;;;;;;;2.40;0.90;;;;;;;2.73;75.28;99287.28;4951605;28;20219;-74
2021/12/02 03:43:50;;;;;;;4.70;0.70;;;;;;;2.71;75.26;99300.69;4951386;28;20196;-74
2021/12/02 03:46:21;;;;;;;2.67;0.73;;;;;;;2.66;76.31;99307.31;4951179;28;20259;-74
2021/12/02 03:48:47;;;;;;;2.93;0.73;;;;;;;2.67;76.27;99303.97;4951237;29;20295;-73
2021/12/02 03:51:13;;;;;;;1.73;0.53;;;;;;;2.67;76.16;99304.78;4951047;28;20213;-74
2021/12/02 03:53:38;;;;;;;5.00;0.97;;;;;;;2.64;76.82;99314.84;4951341;28;20681;-74
2021/12/02 03:56:06;;;;;;;2.67;0.80;;;;;;;2.62;77.25;99321.50;4951179;29;20185;-74
2021/12/02 03:58:32;;;;;;;3.03;0.70;;;;;;;2.64;77.77;99319.03;4932001;29;20201;-73
2021/12/02 04:00:57;;;;;;;6.80;1.33;;;;;;;2.62;77.31;99316.47;4940430;28;20205;-74
2021/12/02 04:03:23;;;;;;;2.50;0.90;;;;;;;2.60;77.40;99324.81;4951415;29;20197;-73
2021/12/02 04:05:48;;;;;;;6.03;1.53;;;;;;;2.60;77.53;99319.75;4951228;29;20201;-73
2021/12/02 04:08:13;;;;;;;3.93;0.90;;;;;;;2.60;78.53;99320.63;4952507;29;20192;-74
2021/12/02 04:10:41;;;;;;;4.40;1.03;;;;;;;2.61;78.55;99336.63;4950657;28;20204;-73
2021/12/02 04:13:18;;;;;;;3.73;1.10;;;;;;;2.58;80.09;99332.34;4951064;28;20310;-73
2021/12/02 04:15:49;;;;;;;3.57;0.97;;;;;;;2.58;80.98;99344.13;4949552;29;20196;-73
2021/12/02 04:18:15;;;;;;;4.83;1.40;;;;;;;2.55;81.27;99352.50;4951325;28;20743;-73
2021/12/02 04:20:40;;;;;;;3.53;0.97;;;;;;;2.51;81.82;99355.75;4950700;28;20263;-74
2021/12/02 04:23:05;;;;;;;3.63;1.20;;;;;;;2.51;81.92;99362.47;4953688;28;20385;-74
2021/12/02 04:25:31;;;;;;;3.57;0.83;;;;;;;2.48;82.33;99365.75;4954609;29;20244;-73
2021/12/02 04:27:56;;;;;;;3.00;1.13;;;;;;;2.47;81.96;99376.69;4954643;29;20288;-74
2021/12/02 04:30:25;;;;;;;1.20;0.73;;;;;;;2.43;82.59;99374.88;4954695;29;20244;-74
2021/12/02 04:32:51;;;;;;;2.87;1.10;;;;;;;2.43;82.69;99377.41;4954327;28;20220;-73
2021/12/02 04:35:17;;;;;;;3.67;1.10;;;;;;;2.39;83.20;99390.75;4953606;29;20556;-73
2021/12/02 04:37:44;;;;;;;4.77;0.90;;;;;;;2.33;82.69;99389.72;4954568;29;20211;-74
2021/12/02 04:40:11;;;;;;;5.00;1.07;;;;;;;2.29;83.22;99393.84;4954633;29;20667;-74
2021/12/02 04:42:37;;;;;;;4.00;0.70;;;;;;;2.28;83.31;99401.38;4953292;28;20372;-74
2021/12/02 04:45:03;;;;;;;5.20;1.00;;;;;;;2.23;82.64;99401.25;4954124;29;20201;-73
2021/12/02 04:47:29;;;;;;;2.40;1.00;;;;;;;2.20;82.48;99402.84;4956537;29;20185;-74
2021/12/02 04:49:54;;;;;;;3.20;0.97;;;;;;;2.16;83.40;99401.03;4954077;29;20607;-73
2021/12/02 04:52:20;;;;;;;2.93;1.10;;;;;;;2.12;81.85;99411.84;4953951;28;20349;-73
2021/12/02 04:54:45;;;;;;;4.17;1.20;;;;;;;2.11;80.85;99413.50;4953286;28;20220;-73
2021/12/02 04:57:11;;;;;;;4.67;1.13;;;;;;;2.08;80.68;99410.06;4954656;29;20208;-74
2021/12/02 04:59:36;;;;;;;3.93;0.90;;;;;;;2.04;81.35;99426.78;4953636;29;20193;-73
2021/12/02 05:02:02;;;;;;;3.27;1.50;;;;;;;2.02;80.80;99427.53;4954172;28;20213;-73
2021/12/02 05:04:27;;;;;;;4.30;1.00;;;;;;;2.01;79.99;99438.44;4954673;28;20185;-73
2021/12/02 05:06:53;;;;;;;4.80;1.00;;;;;;;1.99;78.57;99429.97;4954219;28;20208;-73
2021/12/02 05:09:18;;;;;;;5.50;1.30;;;;;;;1.95;79.10;99430.69;4953430;28;20237;-73
2021/12/02 05:11:43;;;;;;;4.00;1.20;;;;;;;1.92;77.98;99428.09;4953495;28;20224;-73
2021/12/02 05:14:09;;;;;;;5.87;0.80;;;;;;;1.90;78.23;99435.59;4952459;29;20215;-73
2021/12/02 05:16:35;;;;;;;2.00;0.70;;;;;;;1.88;78.60;99439.72;4953664;29;20865;-73
2021/12/02 05:19:01;;;;;;;2.97;1.00;;;;;;;1.84;78.27;99435.41;4953667;28;20291;-73
2021/12/02 05:21:26;;;;;;;2.40;0.80;;;;;;;1.82;78.19;99437.03;4954141;28;20287;-73
2021/12/02 05:23:55;;;;;;;3.90;1.13;;;;;;;1.78;77.52;99439.41;4953785;28;20659;-73
2021/12/02 05:26:21;;;;;;;3.67;1.13;;;;;;;1.73;77.22;99435.88;4955656;29;20702;-73
2021/12/02 05:28:47;;;;;;;5.33;0.93;;;;;;;1.73;76.02;99445.97;4956365;28;20200;-73
2021/12/02 05:31:12;;;;;;;3.13;1.07;;;;;;;1.74;75.05;99448.53;4953305;28;20236;-73
2021/12/02 05:33:37;;;;;;;5.77;1.17;;;;;;;1.74;75.68;99458.63;4952802;28;20232;-73
2021/12/02 05:36:03;;;;;;;3.87;0.87;;;;;;;1.73;74.66;99456.94;4953574;29;20203;-73
2021/12/02 05:38:28;;;;;;;5.67;1.10;;;;;;;1.72;74.90;99459.41;4953721;29;20197;-73
2021/12/02 05:40:53;;;;;;;3.57;0.93;;;;;;;1.70;73.79;99461.88;4952122;28;20251;-73
2021/12/02 05:43:19;;;;;;;1.97;1.00;;;;;;;1.70;73.84;99464.38;4953706;28;20189;-73
2021/12/02 05:45:44;;;;;;;4.03;1.03;;;;;;;1.68;74.35;99482.81;4953212;28;20186;-73
2021/12/02 05:48:09;;;;;;;3.60;0.87;;;;;;;1.62;74.01;99487.66;4953206;29;20197;-74
2021/12/02 05:50:35;;;;;;;5.30;1.00;;;;;;;1.62;74.06;99486.00;4953190;29;20544;-73
2021/12/02 05:53:00;;;;;;;1.37;0.80;;;;;;;1.61;75.19;99483.44;4953154;28;20209;-73
2021/12/02 05:55:26;;;;;;;4.63;1.00;;;;;;;1.60;75.40;99496.84;4952978;29;20333;-73
2021/12/02 05:57:51;;;;;;;2.63;1.10;;;;;;;1.62;74.41;99498.63;4952859;28;20243;-73
2021/12/02 06:00:17;;;;;;;6.13;0.90;;;;;;;1.62;74.50;99501.13;4952858;29;20189;-73
2021/12/02 06:02:44;;;;;;;6.00;1.30;;;;;;;1.64;74.58;99511.25;4948423;28;20300;-73
2021/12/02 06:05:09;;;;;;;5.70;1.00;;;;;;;1.62;74.78;99526.34;4934355;29;20277;-73
2021/12/02 06:07:37;;;;;;;6.20;1.40;;;;;;;1.65;74.64;99525.59;4951804;29;20185;-73
2021/12/02 06:10:03;;;;;;;4.60;1.10;;;;;;;1.66;74.50;99525.63;4967009;28;20714;-73
2021/12/02 06:12:29;;;;;;;5.23;1.17;;;;;;;1.67;74.58;99529.88;4952843;28;20228;-73
2021/12/02 06:14:54;;;;;;;3.93;1.10;;;;;;;1.68;74.40;99540.81;4953041;28;20554;-73
2021/12/02 06:17:19;;;;;;;4.10;1.20;;;;;;;1.64;74.94;99549.94;4967140;28;20577;-72
2021/12/02 06:19:45;;;;;;;4.50;1.10;;;;;;;2.10;76.54;99547.22;4951513;28;20193;-76
2021/12/02 06:22:10;;;;;;;6.07;1.63;;;;;;;1.87;74.56;99555.75;4952472;28;20213;-74
2021/12/02 06:27:27;;;;;;;6.23;1.30;;;;;;;1.74;75.04;99559.53;4978527;28;20232;-74
2021/12/02 06:29:54;;;;;;;8.70;1.67;;;;;;;1.74;75.28;99556.16;4955049;28;20212;-73
2021/12/02 06:32:19;;;;;;;5.57;1.30;;;;;;;1.71;76.38;99568.66;4952699;28;20229;-73
2021/12/02 06:34:44;;;;;;;6.23;1.40;;;;;;;1.65;77.24;99576.03;4952996;29;20200;-74
2021/12/02 06:37:10;;;;;;;4.50;1.83;;;;;;;1.65;76.30;99566.78;4952688;29;20201;-74
2021/12/02 06:39:35;;;;;;;8.67;1.93;;;;;;;1.65;76.62;99581.94;4952340;28;20200;-74
2021/12/02 06:42:00;;;;;;;4.23;1.30;;;;;;;1.65;76.16;99589.50;4952469;28;20209;-74
2021/12/02 06:44:27;;;;;;;6.37;1.40;;;;;;;1.64;76.83;99590.31;4954799;28;20185;-74
2021/12/02 06:46:52;;;;;;;7.13;1.57;;;;;;;1.66;77.19;99596.25;4953059;28;20182;-74
2021/12/02 06:49:18;;;;;;;6.93;1.90;;;;;;;1.61;76.52;99599.44;4952231;28;20901;-73
2021/12/02 06:51:43;;;;;;;14.57;1.77;;;;;;;1.63;75.96;99601.22;4966971;28;20749;-73
2021/12/02 06:54:08;;;;;;;5.83;1.53;;;;;;;1.61;76.62;99605.31;4952306;28;20644;-73
2021/12/02 06:56:34;;;;;;;4.13;1.23;;;;;;;1.60;77.30;99611.19;4952241;28;20274;-74
2021/12/02 06:58:59;;;;;;;5.47;1.13;;;;;;;1.58;77.97;99617.84;4951985;29;20196;-73
2021/12/02 07:01:24;;;;;;;6.97;1.37;;;;;;;1.61;77.39;99622.97;4952117;28;20213;-74
2021/12/02 07:03:50;;;;;;;6.33;1.67;;;;;;;1.57;77.76;99633.78;4952248;28;20201;-74
2021/12/02 07:06:15;;;;;;;8.37;1.83;;;;;;;1.54;77.51;99636.19;4952191;28;20222;-74
2021/12/02 07:08:40;;;;;;;3.13;1.40;;;;;;;1.56;77.96;99636.25;4951820;28;20246;-74
2021/12/02 07:11:08;;;;;;;8.00;1.63;;;;;;;1.58;77.21;99632.97;4951857;28;20299;-74
2021/12/02 07:13:35;;;;;;;6.10;1.80;;;;;;;1.56;78.17;99634.56;4951925;28;20181;-74
2021/12/02 07:16:01;;;;;;;7.67;1.50;;;;;;;1.55;77.42;99640.44;4951786;28;20234;-73
2021/12/02 07:18:26;;;;;;;9.17;1.33;;;;;;;1.54;78.55;99643.75;4952986;28;20232;-74
2021/12/02 07:20:52;;;;;;;6.93;1.57;;;;;;;1.57;77.17;99650.56;4953211;28;20203;-74
2021/12/02 07:23:19;;;;;;;8.80;1.67;;;;;;;1.54;77.85;99656.38;4951917;28;20181;-74
2021/12/02 07:25:45;;;;;;;5.47;1.57;;;;;;;1.54;78.79;99668.97;4951815;29;20200;-74
2021/12/02 07:28:12;;;;;;;5.50;1.80;;;;;;;1.51;78.41;99668.03;4951537;29;20678;-73
2021/12/02 07:30:39;;;;;;;6.60;1.87;;;;;;;1.54;77.96;99675.66;4951615;29;20177;-74
2021/12/02 07:33:07;;;;;;;7.93;1.67;;;;;;;1.56;78.15;99682.50;4951649;28;20239;-74
2021/12/02 07:35:33;;;;;;;4.47;1.43;;;;;;;1.58;77.49;99680.03;4951602;29;20196;-74
2021/12/02 07:38:01;;;;;;;5.10;1.80;;;;;;;1.55;77.97;99697.56;4951498;29;20554;-74
2021/12/02 07:40:36;;;;;;;4.83;1.90;;;;;;;1.53;79.09;99697.53;4951737;29;20189;-74
2021/12/02 07:43:02;;;;;;;7.00;2.43;;;;;;;1.54;77.69;99700.88;4951757;28;20713;-74
2021/12/02 07:45:34;;;;;;;4.13;1.27;;;;;;;1.55;77.98;99700.06;4951777;29;20244;-74
2021/12/02 07:48:00;;;;;;;6.47;1.73;;;;;;;1.58;78.19;99705.25;4966466;28;20267;-74
2021/12/02 07:50:26;;;;;;;7.63;2.07;;;;;;;1.57;78.84;99706.94;4951681;29;20805;-74
2021/12/02 07:52:54;;;;;;;6.70;1.50;;;;;;;1.58;77.62;99713.69;4951478;28;20250;-74
2021/12/02 07:55:21;;;;;;;7.47;1.80;;;;;;;1.61;78.23;99717.97;4951691;28;20197;-73
2021/12/02 07:57:47;;;;;;;12.47;2.30;;;;;;;1.62;77.36;99729.78;4957938;28;20279;-73
2021/12/02 08:00:16;;;;;;;5.47;1.33;;;;;;;1.62;77.41;99735.69;4957650;28;20280;-74
2021/12/02 08:02:43;;;;;;;4.80;1.80;;;;;;;1.67;76.08;99731.66;4957741;28;20197;-74
2021/12/02 08:05:09;;;;;;;9.07;1.70;;;;;;;1.69;77.06;99741.81;4957816;29;20203;-74
2021/12/02 08:07:38;;;;;;;12.27;2.07;;;;;;;1.71;75.95;99738.56;4957783;29;20710;-74
2021/12/02 08:10:04;;;;;;;6.97;1.60;;;;;;;1.74;75.88;99742.84;4957603;29;20200;-74
2021/12/02 08:12:29;;;;;;;10.23;1.73;;;;;;;1.80;74.89;99746.44;4957571;28;20899;-74
2021/12/02 08:14:55;;;;;;;6.70;1.80;;;;;;;1.81;74.94;99750.69;4955903;28;20771;-74
2021/12/02 08:17:20;;;;;;;5.77;1.60;;;;;;;1.84;75.32;99754.97;4956470;28;20193;-74
2021/12/02 08:19:45;;;;;;;5.63;1.97;;;;;;;1.86;74.91;99750.84;4957494;29;20196;-74
2021/12/02 08:22:11;;;;;;;7.70;1.70;;;;;;;1.86;75.19;99761.78;4957674;28;20212;-73
2021/12/02 08:24:36;;;;;;;8.40;1.90;;;;;;;1.88;75.38;99772.78;4957765;28;20185;-74
2021/12/02 08:27:02;;;;;;;6.93;1.93;;;;;;;1.90;75.85;99775.38;4957770;28;20677;-75
2021/12/02 08:29:27;;;;;;;7.33;2.17;;;;;;;1.93;75.87;99783.06;4972482;28;20193;-74
2021/12/02 08:31:52;;;;;;;6.33;1.70;;;;;;;1.93;75.26;99788.13;4957896;28;20217;-74
2021/12/02 08:34:18;;;;;;;7.93;1.50;;;;;;;1.98;76.45;99794.19;4957917;29;20630;-74
2021/12/02 08:36:46;;;;;;;6.47;1.53;;;;;;;1.99;75.91;99791.72;4947872;28;20934;-75
2021/12/02 08:39:17;;;;;;;6.03;1.80;;;;;;;2.01;76.56;99800.19;4955179;28;20200;-75
2021/12/02 08:41:48;;;;;;;7.07;2.00;;;;;;;2.03;75.96;99797.72;4955558;28;20227;-75
2021/12/02 08:44:15;;;;;;;4.80;1.90;;;;;;;2.05;76.71;99794.44;4956797;28;20205;-75
2021/12/02 08:46:41;;;;;;;10.53;1.90;;;;;;;2.08;75.84;99806.31;4957347;28;20193;-75
2021/12/02 08:49:06;;;;;;;8.83;1.63;;;;;;;2.10;74.42;99809.75;4971743;28;20203;-74
2021/12/02 08:51:32;;;;;;;6.97;2.00;;;;;;;2.14;75.34;99821.66;4956260;28;20596;-73
2021/12/02 08:53:57;;;;;;;6.00;1.83;;;;;;;2.15;74.38;99818.38;4957474;28;20232;-73
2021/12/02 08:56:22;;;;;;;5.57;2.30;;;;;;;2.19;74.86;99826.09;4957071;28;20189;-75
2021/12/02 08:58:48;;;;;;;6.40;2.03;;;;;;;2.30;75.47;99834.06;4957230;28;20196;-75
2021/12/02 09:01:13;;;;;;;6.03;1.60;;;;;;;2.28;73.31;99836.50;4957351;28;20205;-75
2021/12/02 09:03:38;;;;;;;5.30;1.43;;;;;;;2.30;73.07;99841.63;4957261;29;20189;-75
2021/12/02 09:06:10;;;;;;;5.90;1.83;;;;;;;2.32;71.75;99842.53;4955698;29;20196;-76
2021/12/02 09:08:36;;;;;;;5.70;1.77;;;;;;;2.39;72.07;99852.06;4954170;28;20263;-75
2021/12/02 09:11:03;;;;;;;6.80;1.83;;;;;;;2.39;70.90;99850.38;4953768;28;20225;-75
2021/12/02 09:13:29;;;;;;;6.20;1.53;;;;;;;2.45;71.68;99853.13;4954749;28;20220;-75
2021/12/02 09:15:54;;;;;;;7.13;1.53;;;;;;;2.52;71.82;99857.56;4954197;28;20264;-74
2021/12/02 09:18:20;;;;;;;5.87;1.70;;;;;;;2.60;70.75;99861.22;4968321;28;20723;-74
2021/12/02 09:20:45;;;;;;;5.00;1.27;;;;;;;2.72;70.56;99856.56;4953866;29;20659;-73
2021/12/02 09:23:10;;;;;;;5.43;1.47;;;;;;;2.90;71.09;99861.41;4952509;29;20216;-74
2021/12/02 09:25:36;;;;;;;8.17;1.73;;;;;;;3.01;69.69;99855.91;4953722;28;20555;-74
2021/12/02 09:28:01;;;;;;;5.17;1.70;;;;;;;3.20;69.52;99867.47;4953616;28;20228;-73
2021/12/02 09:30:27;;;;;;;9.07;1.70;;;;;;;3.64;70.14;99862.13;4954152;29;20173;-74
2021/12/02 09:32:53;;;;;;;3.93;1.37;;;;;;;3.87;67.79;99868.75;4953748;28;20224;-73
2021/12/02 09:35:19;;;;;;;5.00;1.47;;;;;;;3.85;66.31;99876.31;4968534;28;20595;-73
2021/12/02 09:37:45;;;;;;;6.47;1.60;;;;;;;3.89;64.52;99875.59;4953330;29;20189;-74
2021/12/02 09:40:13;;;;;;;7.37;1.83;;;;;;;3.95;62.41;99877.44;4952367;29;20934;-73
2021/12/02 09:42:40;;;;;;;2.67;1.10;;;;;;;4.04;61.45;99875.16;4953302;28;20207;-73
2021/12/02 09:45:06;;;;;;;4.90;1.33;;;;;;;4.21;61.83;99884.09;4953395;29;20671;-73
2021/12/02 09:47:35;;;;;;;3.83;1.40;;;;;;;4.35;60.77;99882.81;4953098;29;20209;-73
2021/12/02 09:50:07;;;;;;;4.67;1.40;;;;;;;4.51;60.62;99893.44;4967992;28;20292;-73
2021/12/02 09:52:39;;;;;;;7.47;1.50;;;;;;;4.70;60.67;99893.09;4953093;28;20296;-73
2021/12/02 09:55:18;;;;;;;4.57;1.90;;;;;;;4.95;59.49;99887.88;4953295;29;20201;-73
2021/12/02 09:57:48;;;;;;;5.60;1.47;;;;;;;5.04;58.84;99884.72;4951936;29;20281;-73
2021/12/02 10:00:19;;;;;;;4.63;1.40;;;;;;;5.33;58.50;99889.69;4953062;29;20268;-74
2021/12/02 10:02:55;;;;;;;6.60;1.97;;;;;;;5.78;58.18;99888.25;4968138;28;20249;-73
2021/12/02 10:05:33;;;;;;;5.33;1.60;;;;;;;6.23;57.54;99883.34;4953401;29;20203;-74
2021/12/02 10:08:02;;;;;;;3.97;1.43;;;;;;;6.01;55.65;99892.19;4953114;28;20189;-74
2021/12/02 10:10:34;;;;;;;3.33;1.70;;;;;;;6.26;54.51;99889.31;4951920;29;20204;-73
2021/12/02 10:13:08;;;;;;;5.10;1.83;;;;;;;6.78;53.59;99886.97;4953060;28;20304;-73
2021/12/02 10:15:37;;;;;;;6.37;2.00;;;;;;;7.13;52.19;99890.16;4967693;28;20311;-74
2021/12/02 10:18:12;;;;;;;7.90;2.00;;;;;;;8.07;51.47;99872.97;4951246;29;20279;-74
2021/12/02 10:20:44;;;;;;;3.67;2.20;;;;;;;8.33;49.17;99879.28;4951156;28;20200;-73
2021/12/02 10:23:24;;;;;;;3.97;1.87;;;;;;;9.26;46.26;99886.28;4952785;28;20307;-74
2021/12/02 10:25:58;;;;;;;3.23;1.60;;;;;;;10.23;45.04;99887.88;4953269;28;20173;-74
2021/12/02 10:28:26;;;;;;;6.57;1.60;;;;;;;11.01;42.33;99883.03;4952457;29;20178;-74
2021/12/02 10:30:55;;;;;;;5.73;1.63;;;;;;;12.58;39.59;99884.59;4952436;29;20177;-73
2021/12/02 10:33:36;;;;;;;4.90;1.47;;;;;;;9.86;44.91;99902.09;4966012;28;20557;-73
2021/12/02 10:36:04;;;;;;;4.47;1.60;;;;;;;9.51;45.55;99903.53;4952557;28;20879;-74
2021/12/02 10:38:38;;;;;;;8.33;1.70;;;;;;;9.38;46.14;99896.59;4951959;29;20582;-73
2021/12/02 10:41:07;;;;;;;3.40;1.57;;;;;;;9.48;45.67;99900.94;4966908;28;20205;-74
2021/12/02 10:43:32;;;;;;;5.27;1.90;;;;;;;9.36;45.71;99911.03;4967229;28;20181;-74
2021/12/02 10:46:19;;;;;;;4.47;1.73;;;;;;;9.54;46.08;99910.38;4952304;28;20189;-72
2021/12/02 10:48:48;;;;;;;4.30;1.67;;;;;;;9.58;45.67;99915.50;4952078;28;20674;-74
2021/12/02 10:51:38;;;;;;;7.03;1.70;;;;;;;9.06;44.91;99920.13;4952044;28;20225;-73
2021/12/02 10:54:14;;;;;;;4.60;2.10;;;;;;;9.89;45.44;99917.47;4952002;29;20196;-73
2021/12/02 10:56:42;;;;;;;3.63;1.90;;;;;;;10.21;44.23;99917.69;4950910;29;20227;-72
2021/12/02 10:59:41;;;;;;;5.73;2.13;;;;;;;13.22;38.48;99914.22;4950339;29;20573;-72
2021/12/02 11:02:19;;;;;;;3.83;2.10;;;;;;;13.92;34.68;99917.13;4952360;28;20296;-72
2021/12/02 11:04:48;;;;;;;7.73;2.00;;;;;;;14.03;34.67;99912.72;4952085;29;20275;-72
2021/12/02 11:07:27;;;;;;;6.80;2.30;;;;;;;14.49;34.89;99927.72;4950755;29;20227;-72
2021/12/02 11:09:54;;;;;;;6.10;2.00;;;;;;;14.49;35.00;99938.03;4951694;29;20177;-73
2021/12/02 11:12:25;;;;;;;4.70;2.23;;;;;;;14.78;33.56;99941.13;4951815;28;20223;-72
2021/12/02 11:15:18;;;;;;;4.87;2.27;;;;;;;13.96;33.35;99936.84;4950487;29;20559;-73
2021/12/02 11:18:02;;;;;;;5.93;2.20;;;;;;;15.07;33.07;99920.13;4951989;28;20588;-74
2021/12/02 11:20:29;;;;;;;6.63;2.70;;;;;;;15.59;32.87;99924.56;4950547;28;20236;-74
2021/12/02 11:23:00;;;;;;;6.37;2.53;;;;;;;14.80;32.17;99935.97;4950330;29;20300;-74
2021/12/02 11:25:26;;;;;;;4.93;2.17;;;;;;;15.77;32.56;99936.31;4951641;29;20244;-74
2021/12/02 11:27:52;;;;;;;5.07;1.87;;;;;;;13.67;35.93;99944.78;4951421;29;20201;-74
2021/12/02 11:30:20;;;;;;;4.20;2.03;;;;;;;12.47;38.87;99950.53;4950194;28;20191;-74
2021/12/02 11:32:52;;;;;;;3.87;1.53;;;;;;;12.64;37.93;99951.34;4950746;28;20225;-75
2021/12/02 11:35:39;;;;;;;5.13;1.90;;;;;;;10.87;41.48;99972.63;4966063;28;20628;-74
2021/12/02 11:38:08;;;;;;;5.40;1.80;;;;;;;9.58;44.21;99976.00;4951031;29;20275;-74
2021/12/02 11:40:37;;;;;;;3.93;1.50;;;;;;;8.44;46.03;99984.88;4951690;29;20193;-75
2021/12/02 11:43:03;;;;;;;4.50;1.77;;;;;;;7.96;49.10;99990.06;4944970;29;20205;-73
2021/12/02 11:45:31;;;;;;;4.53;1.40;;;;;;;7.32;48.70;100004.25;4962829;28;20194;-74
2021/12/02 11:47:57;;;;;;;4.83;1.50;;;;;;;7.13;49.94;100000.47;4942452;28;20255;-74
2021/12/02 11:50:26;;;;;;;5.67;1.77;;;;;;;7.39;49.76;99998.41;4966250;28;20189;-74